Time;durP1;ratioP1;P1;durP2;ratioP2;P2;SDS_P1;SDS_P2;PMS_P1;PMS_P2;Temp;Humidity;BMP_temperature;BMP_pressure;BME280_temperature;BME280_humidity;BME280_pressure;Samples;Min_cycle;Max_cycle;Signal;HPM_P1;HPM_P2
2022/11/01 00:01:42;;;;;;;11.07;5.72;;;;;;;7.38;65.22;94186.38;5091423;28;20031;-35
2022/11/01 00:04:07;;;;;;;8.80;5.72;;;;;;;7.25;65.49;94188.97;5092598;28;20032;-35
2022/11/01 00:06:34;;;;;;;8.60;5.57;;;;;;;7.10;65.32;94185.81;5092309;28;20123;-35
2022/11/01 00:09:00;;;;;;;16.33;7.88;;;;;;;7.08;66.12;94182.81;5090426;28;20048;-35
2022/11/01 00:11:26;;;;;;;10.82;7.28;;;;;;;6.98;66.09;94184.38;5092057;28;20109;-35
2022/11/01 00:13:51;;;;;;;11.23;6.53;;;;;;;6.78;66.51;94181.97;5073430;28;20525;-35
2022/11/01 00:16:18;;;;;;;12.95;7.65;;;;;;;6.50;67.91;94187.59;5090602;28;20024;-35
2022/11/01 00:18:44;;;;;;;15.10;7.13;;;;;;;6.70;67.14;94156.31;5091356;28;20016;-35
2022/11/01 00:21:10;;;;;;;13.02;7.90;;;;;;;6.88;67.09;94185.94;5091024;28;20389;-37
2022/11/01 00:23:36;;;;;;;12.23;7.15;;;;;;;6.85;67.22;94178.72;5091398;28;20028;-35
2022/11/01 00:26:02;;;;;;;11.43;7.68;;;;;;;6.89;66.84;94179.94;5089068;28;20024;-35
2022/11/01 00:28:28;;;;;;;10.50;5.60;;;;;;;6.64;66.02;94175.56;5086047;28;20031;-34
2022/11/01 00:30:55;;;;;;;8.63;5.55;;;;;;;6.57;66.04;94176.09;5090589;28;20435;-34
2022/11/01 00:33:21;;;;;;;3.90;3.47;;;;;;;6.47;66.09;94174.16;5090722;28;20036;-34
2022/11/01 00:35:47;;;;;;;6.88;4.30;;;;;;;6.78;64.92;94171.75;5088034;28;20035;-34
2022/11/01 00:38:13;;;;;;;11.52;5.57;;;;;;;6.97;63.97;94173.91;5090418;28;20024;-34
2022/11/01 00:40:39;;;;;;;13.18;6.72;;;;;;;6.62;64.63;94167.09;5090519;28;20074;-34
2022/11/01 00:43:04;;;;;;;11.27;6.32;;;;;;;6.65;64.84;94154.34;5086470;28;20056;-34
2022/11/01 00:45:30;;;;;;;11.80;6.07;;;;;;;6.73;65.12;94172.53;5089142;28;20035;-34
2022/11/01 00:47:55;;;;;;;12.68;6.43;;;;;;;6.84;64.43;94175.22;5091988;28;20074;-34
2022/11/01 00:50:21;;;;;;;9.35;6.32;;;;;;;6.84;64.09;94166.97;5085784;28;20047;-34
2022/11/01 00:52:46;;;;;;;12.63;7.03;;;;;;;6.52;65.33;94167.91;5090875;28;22062;-34
2022/11/01 00:55:12;;;;;;;9.55;6.15;;;;;;;6.77;64.69;94169.53;5091700;28;20016;-34
2022/11/01 00:57:37;;;;;;;13.20;6.18;;;;;;;6.69;64.62;94166.56;5089906;28;20464;-34
2022/11/01 01:00:04;;;;;;;7.13;5.20;;;;;;;6.63;64.69;94171.31;5091959;28;20465;-34
2022/11/01 01:02:29;;;;;;;8.48;5.05;;;;;;;6.76;64.16;94171.50;5091832;28;20024;-34
2022/11/01 01:04:54;;;;;;;15.60;5.60;;;;;;;6.59;64.48;94168.09;5089926;28;20062;-34
2022/11/01 01:07:20;;;;;;;9.20;5.97;;;;;;;6.66;64.42;94167.56;5091061;28;20048;-34
2022/11/01 01:09:45;;;;;;;8.13;4.35;;;;;;;6.72;64.34;94164.78;5089000;28;20108;-34
2022/11/01 01:12:11;;;;;;;10.98;5.25;;;;;;;6.66;64.53;94166.81;5090608;28;20106;-34
2022/11/01 01:14:36;;;;;;;11.82;5.60;;;;;;;6.64;64.73;94161.09;5086534;28;20397;-34
2022/11/01 01:17:02;;;;;;;9.93;5.43;;;;;;;6.57;64.84;94161.63;5090380;28;20035;-34
2022/11/01 01:19:28;;;;;;;11.40;6.25;;;;;;;6.43;65.14;94157.22;5087074;28;20035;-34
2022/11/01 01:21:54;;;;;;;11.85;6.88;;;;;;;6.50;64.92;94167.63;5086768;28;20020;-34
2022/11/01 01:24:20;;;;;;;12.27;5.55;;;;;;;6.44;64.99;94166.91;5091094;28;20023;-34
2022/11/01 01:26:46;;;;;;;9.63;5.35;;;;;;;6.47;64.84;94171.41;5089070;28;20503;-34
2022/11/01 01:29:11;;;;;;;6.88;5.00;;;;;;;6.57;64.21;94161.63;5090719;28;20098;-34
2022/11/01 01:31:37;;;;;;;7.65;4.72;;;;;;;6.50;64.75;94170.38;5085369;28;20544;-35
2022/11/01 01:34:03;;;;;;;7.65;5.65;;;;;;;6.38;64.90;94174.41;5089492;28;20487;-35
2022/11/01 01:36:28;;;;;;;11.82;4.55;;;;;;;6.40;65.32;94166.44;5084912;28;20058;-34
2022/11/01 01:38:54;;;;;;;8.45;5.28;;;;;;;6.36;65.34;94165.94;5084475;28;20031;-35
2022/11/01 01:44:41;;;;;;;7.68;5.07;;;;;;;6.30;65.67;94167.97;5089842;28;20054;-35
2022/11/01 01:47:11;;;;;;;9.18;5.28;;;;;;;5.65;67.85;94176.50;5086800;28;20025;-35
2022/11/01 01:49:37;;;;;;;8.77;4.82;;;;;;;5.87;66.70;94167.56;5078011;28;20027;-34
2022/11/01 01:52:02;;;;;;;14.80;5.45;;;;;;;5.71;66.95;94169.06;5059643;28;20028;-34
2022/11/01 01:54:29;;;;;;;8.90;5.32;;;;;;;5.92;66.48;94164.81;5085636;28;20478;-34
2022/11/01 01:56:55;;;;;;;9.40;4.20;;;;;;;5.82;66.67;94171.78;5072457;28;20027;-34
2022/11/01 01:59:20;;;;;;;5.57;3.30;;;;;;;5.66;66.22;94167.06;5089095;28;20038;-34
2022/11/01 02:01:46;;;;;;;8.18;4.95;;;;;;;5.28;67.34;94182.25;5083919;28;20095;-34
2022/11/01 02:04:30;;;;;;;13.02;5.68;;;;;;;5.65;66.66;94178.53;5078228;28;20027;-34
2022/11/01 02:06:57;;;;;;;8.10;4.47;;;;;;;5.28;66.82;94176.03;5089009;28;20086;-34
2022/11/01 02:09:23;;;;;;;13.73;5.28;;;;;;;5.12;67.36;94184.97;5066895;28;20063;-34
2022/11/01 02:11:49;;;;;;;14.43;6.30;;;;;;;5.50;66.72;94186.97;5081989;28;20035;-34
2022/11/01 02:14:16;;;;;;;8.52;5.28;;;;;;;5.58;66.60;94185.25;5089264;28;20031;-34
2022/11/01 02:16:59;;;;;;;10.60;5.78;;;;;;;5.61;66.30;94184.25;5084794;28;20024;-34
2022/11/01 02:19:31;;;;;;;10.60;6.25;;;;;;;5.69;65.89;94190.72;5068146;28;20020;-34
2022/11/01 02:22:26;;;;;;;14.68;5.35;;;;;;;5.43;65.89;94160.13;5081780;28;20078;-35
2022/11/01 02:25:20;;;;;;;10.07;4.82;;;;;;;5.76;65.97;94192.94;5090831;28;20024;-34
2022/11/01 02:28:19;;;;;;;7.93;4.78;;;;;;;5.92;64.99;94189.50;5091855;28;20560;-34
2022/11/01 02:30:45;;;;;;;;;;;;;;;5.82;64.89;94190.22;5085654;28;20032;-34
2022/11/01 02:33:20;;;;;;;10.80;4.53;;;;;;;5.59;65.62;94188.75;5076590;28;19916;-34
2022/11/01 02:36:07;;;;;;;6.47;4.03;;;;;;;5.73;65.08;94187.72;5094409;28;20052;-34
2022/11/01 02:38:35;;;;;;;6.57;4.10;;;;;;;5.65;65.38;94187.47;5092117;28;20024;-34
2022/11/01 02:41:10;;;;;;;9.45;3.88;;;;;;;5.69;65.16;94188.00;5088556;28;20161;-34
2022/11/01 02:44:27;;;;;;;3.78;3.03;;;;;;;5.50;65.54;94186.25;5081504;28;20108;-34
2022/11/01 02:47:00;;;;;;;6.35;3.28;;;;;;;5.67;65.25;94189.72;5055415;28;20044;-34
2022/11/01 02:49:37;;;;;;;9.25;3.58;;;;;;;5.64;64.96;94194.22;5077907;28;20111;-35
2022/11/01 02:52:04;;;;;;;9.25;3.75;;;;;;;5.45;65.70;94195.22;5070917;28;20158;-34
2022/11/01 02:54:32;;;;;;;6.78;4.57;;;;;;;5.50;66.04;94191.72;5071569;28;20032;-34
2022/11/01 02:57:20;;;;;;;4.90;3.93;;;;;;;5.58;65.88;94198.19;5093721;28;20049;-35
2022/11/01 02:59:47;;;;;;;9.68;4.70;;;;;;;5.52;65.47;94189.25;5081468;28;20440;-34
2022/11/01 03:02:38;;;;;;;9.95;6.63;;;;;;;5.44;65.68;94194.44;5091020;28;20027;-35
2022/11/01 03:05:27;;;;;;;17.80;8.50;;;;;;;5.45;66.00;94195.22;5079864;28;20069;-35
2022/11/01 03:07:56;;;;;;;;;;;;;;;5.36;65.94;94193.47;5044168;28;20040;-34
2022/11/01 03:10:22;;;;;;;;;;;;;;;5.03;66.86;94193.41;5082393;28;19919;-35
2022/11/01 03:12:58;;;;;;;10.40;5.65;;;;;;;5.06;66.61;94198.66;5091518;28;19908;-35
2022/11/01 03:15:30;;;;;;;10.90;5.13;;;;;;;4.72;66.34;94180.63;5092481;28;20024;-34
2022/11/01 03:18:10;;;;;;;43.90;18.98;;;;;;;4.86;67.25;94212.53;5078076;28;20099;-35
2022/11/01 03:20:47;;;;;;;23.88;11.50;;;;;;;4.89;66.77;94208.06;5073863;28;20082;-35
2022/11/01 03:23:23;;;;;;;19.90;10.65;;;;;;;4.87;67.73;94207.81;5092702;28;20089;-35
2022/11/01 03:25:55;;;;;;;20.63;9.88;;;;;;;4.91;67.14;94208.31;5072800;28;20494;-34
2022/11/01 03:28:36;;;;;;;19.23;8.73;;;;;;;4.80;67.68;94211.00;5094782;28;20032;-35
2022/11/01 03:31:23;;;;;;;14.75;7.55;;;;;;;4.90;66.51;94220.50;5078943;28;20035;-35
2022/11/01 03:33:53;;;;;;;15.88;8.90;;;;;;;4.99;66.83;94214.78;5094139;28;20103;-35
2022/11/01 03:36:21;;;;;;;17.05;8.15;;;;;;;4.99;66.11;94203.84;5090482;28;20031;-34
2022/11/01 03:39:30;;;;;;;16.23;7.45;;;;;;;5.17;66.05;94211.59;5085833;28;20040;-35
2022/11/01 03:42:01;;;;;;;19.35;7.88;;;;;;;5.25;66.09;94209.88;5090430;28;20048;-35
2022/11/01 03:44:35;;;;;;;16.17;7.80;;;;;;;5.05;66.01;94210.06;5085966;28;20035;-34
2022/11/01 03:47:02;;;;;;;15.65;7.22;;;;;;;5.14;65.62;94204.38;5088907;28;20480;-34
2022/11/01 03:49:27;;;;;;;15.07;7.45;;;;;;;5.10;65.41;94212.09;5093028;28;20427;-35
2022/11/01 03:51:53;;;;;;;10.23;5.57;;;;;;;5.01;65.15;94206.84;5092597;28;20059;-35
2022/11/01 03:54:18;;;;;;;12.52;6.20;;;;;;;5.08;65.13;94207.13;5092950;28;20035;-36
2022/11/01 03:56:44;;;;;;;11.52;5.85;;;;;;;5.09;65.14;94196.91;5092570;28;20032;-35
2022/11/01 03:59:10;;;;;;;12.25;6.88;;;;;;;4.99;65.83;94209.31;5093331;28;20408;-34
2022/11/01 04:01:36;;;;;;;13.48;6.57;;;;;;;4.94;66.15;94210.81;5091723;28;20089;-34
2022/11/01 04:04:02;;;;;;;19.45;7.78;;;;;;;4.94;65.80;94207.31;5089654;28;20024;-35
2022/11/01 04:06:27;;;;;;;28.05;13.25;;;;;;;4.93;65.75;94203.84;5092153;28;20109;-34
2022/11/01 04:08:53;;;;;;;18.88;11.02;;;;;;;4.93;65.64;94200.34;5090216;28;20028;-34
2022/11/01 04:11:18;;;;;;;22.25;12.35;;;;;;;4.89;66.07;94206.09;5089480;28;20043;-35
2022/11/01 04:13:46;;;;;;;10.57;7.40;;;;;;;5.00;65.98;94208.81;5078100;28;20032;-34
2022/11/01 04:21:39;;;;;;;7.63;4.70;;;;;;;4.44;67.16;94204.44;5090570;28;20093;-35
2022/11/01 04:24:06;;;;;;;9.35;5.07;;;;;;;4.39;67.88;94205.91;5073639;28;20024;-35
2022/11/01 04:26:31;;;;;;;7.47;5.00;;;;;;;4.69;66.93;94209.00;5089720;28;20028;-36
2022/11/01 04:28:57;;;;;;;17.35;5.70;;;;;;;4.63;66.97;94207.47;5095125;28;20096;-35
2022/11/01 04:31:24;;;;;;;11.75;4.72;;;;;;;4.57;66.72;94196.50;5095644;28;20028;-35
2022/11/01 04:33:50;;;;;;;14.10;5.68;;;;;;;4.57;66.68;94205.47;5093020;28;20028;-35
2022/11/01 04:36:15;;;;;;;18.85;7.50;;;;;;;4.63;66.41;94207.47;5092898;28;20027;-35
2022/11/01 04:38:41;;;;;;;9.95;6.30;;;;;;;4.66;66.24;94211.97;5091001;28;20027;-35
2022/11/01 04:41:06;;;;;;;7.65;5.22;;;;;;;4.63;66.30;94207.47;5094616;28;20048;-35
2022/11/01 04:43:32;;;;;;;8.57;5.22;;;;;;;4.76;65.54;94211.25;5096731;28;20084;-35
2022/11/01 04:45:57;;;;;;;17.05;8.68;;;;;;;4.61;66.14;94192.28;5094659;28;20020;-35
2022/11/01 04:48:23;;;;;;;18.40;8.88;;;;;;;4.67;66.32;94208.75;5079518;28;20024;-34
2022/11/01 04:50:49;;;;;;;15.48;8.18;;;;;;;4.45;66.44;94206.66;5089067;28;20619;-35
2022/11/01 04:53:14;;;;;;;15.73;8.48;;;;;;;4.59;66.67;94213.19;5090051;28;20100;-34
2022/11/01 04:55:40;;;;;;;15.50;8.75;;;;;;;4.58;67.40;94203.47;5085212;28;20028;-34
2022/11/01 04:58:05;;;;;;;17.20;8.93;;;;;;;4.53;67.38;94209.66;5090625;28;20020;-35
2022/11/01 05:00:32;;;;;;;13.45;8.48;;;;;;;4.51;67.15;94215.63;5090043;28;20115;-34
2022/11/01 05:03:02;;;;;;;12.80;7.93;;;;;;;4.53;67.82;94207.69;5082319;28;20025;-35
2022/11/01 05:05:27;;;;;;;12.52;8.43;;;;;;;4.53;67.77;94215.88;5086686;28;20035;-35
2022/11/01 05:08:03;;;;;;;17.45;8.63;;;;;;;4.55;68.09;94215.38;5088313;28;20044;-35
2022/11/01 05:10:29;;;;;;;16.83;7.20;;;;;;;4.56;68.75;94216.91;5091720;28;20053;-34
2022/11/01 05:12:55;;;;;;;13.73;7.57;;;;;;;4.54;68.68;94220.13;5088824;28;20051;-36
2022/11/01 05:15:20;;;;;;;12.50;7.70;;;;;;;4.59;68.55;94216.66;5091626;28;20035;-36
2022/11/01 05:17:46;;;;;;;18.38;8.85;;;;;;;4.58;68.32;94222.63;5090240;28;20103;-36
2022/11/01 05:20:11;;;;;;;14.07;8.10;;;;;;;4.56;67.01;94220.38;5089354;28;20032;-36
2022/11/01 05:22:36;;;;;;;13.80;8.32;;;;;;;4.43;67.57;94231.03;5089997;28;20024;-36
2022/11/01 05:25:02;;;;;;;12.93;7.85;;;;;;;4.70;67.11;94231.63;5086154;28;20020;-36
2022/11/01 05:27:28;;;;;;;18.33;8.57;;;;;;;4.83;66.70;94224.44;5089170;28;20055;-35
2022/11/01 05:29:53;;;;;;;15.63;7.40;;;;;;;4.76;66.58;94227.69;5087471;28;20035;-36
2022/11/01 05:32:19;;;;;;;14.07;7.10;;;;;;;4.80;66.71;94225.44;5087548;28;20074;-35
2022/11/01 05:34:45;;;;;;;9.80;5.95;;;;;;;4.76;66.63;94229.66;5090675;28;20032;-35
2022/11/01 05:37:11;;;;;;;53.75;16.15;;;;;;;4.36;67.14;94231.47;5087103;28;20488;-35
2022/11/01 05:39:36;;;;;;;32.97;14.60;;;;;;;4.07;68.19;94236.53;5088751;28;20080;-35
2022/11/01 05:42:02;;;;;;;26.40;10.43;;;;;;;4.41;68.12;94241.69;5089833;28;20020;-35
2022/11/01 05:44:28;;;;;;;16.92;9.40;;;;;;;4.61;67.63;94238.78;5085710;28;20110;-35
2022/11/01 05:46:53;;;;;;;26.35;11.98;;;;;;;4.41;68.98;94238.97;5086735;28;20054;-35
2022/11/01 05:49:21;;;;;;;22.92;13.77;;;;;;;4.16;69.86;94228.88;5088179;28;20416;-34
2022/11/01 05:51:46;;;;;;;26.23;15.32;;;;;;;4.47;69.51;94247.19;5084268;28;20024;-35
2022/11/01 05:54:12;;;;;;;45.65;15.45;;;;;;;4.47;69.35;94247.94;5093932;28;20016;-35
2022/11/01 05:56:37;;;;;;;26.10;13.40;;;;;;;4.69;69.36;94246.53;5088294;28;20051;-35
2022/11/01 05:59:03;;;;;;;33.50;17.08;;;;;;;4.92;67.73;94250.84;5090076;28;20028;-35
2022/11/01 06:01:28;;;;;;;29.67;18.42;;;;;;;5.11;66.83;94252.63;5090737;28;20024;-35
2022/11/01 06:03:54;;;;;;;40.95;21.00;;;;;;;5.12;66.30;94256.13;5090857;28;20020;-35
2022/11/01 06:06:19;;;;;;;39.38;19.95;;;;;;;5.15;66.14;94244.97;5090192;28;20523;-35
2022/11/01 06:08:46;;;;;;;43.97;21.90;;;;;;;5.22;66.37;94254.66;5087076;28;20127;-35
2022/11/01 06:11:11;;;;;;;38.03;18.02;;;;;;;5.41;66.91;94249.47;5089549;28;20024;-35
2022/11/01 06:13:37;;;;;;;34.35;17.27;;;;;;;5.59;66.30;94257.94;5089487;28;20130;-35
2022/11/01 06:16:04;;;;;;;54.40;19.55;;;;;;;5.48;66.64;94257.94;5090237;28;20120;-35
2022/11/01 06:18:30;;;;;;;38.83;18.67;;;;;;;5.44;67.44;94259.41;5083891;28;20516;-35
2022/11/01 06:20:56;;;;;;;59.13;17.95;;;;;;;5.59;67.83;94257.22;5082965;28;20036;-35
2022/11/01 06:23:22;;;;;;;34.53;18.05;;;;;;;5.51;68.43;94261.69;5087223;28;20076;-35
2022/11/01 06:25:47;;;;;;;36.13;17.90;;;;;;;5.70;68.05;94236.03;5074714;28;20107;-35
2022/11/01 06:28:13;;;;;;;28.17;16.73;;;;;;;6.29;66.71;94265.19;5091161;28;20043;-35
2022/11/01 06:30:39;;;;;;;26.85;15.93;;;;;;;6.71;66.25;94270.34;5088982;28;20028;-35
2022/11/01 06:33:05;;;;;;;29.02;18.92;;;;;;;7.05;65.48;94247.00;5084059;28;20024;-35
2022/11/01 06:35:31;;;;;;;43.47;15.50;;;;;;;7.48;64.98;94261.75;5087519;28;20035;-35
2022/11/01 06:38:02;;;;;;;22.35;13.82;;;;;;;7.90;65.38;94270.69;5084014;28;20428;-35
2022/11/01 06:40:27;;;;;;;23.98;11.05;;;;;;;8.49;64.50;94278.94;5069885;28;20035;-35
2022/11/01 06:42:58;;;;;;;20.40;11.00;;;;;;;9.10;62.86;94270.03;5087413;28;20032;-35
2022/11/01 06:45:23;;;;;;;18.20;11.30;;;;;;;9.88;61.49;94264.97;5085530;28;20032;-35
2022/11/01 06:47:49;;;;;;;25.30;12.98;;;;;;;11.31;57.84;94263.69;5066329;28;20170;-36
2022/11/01 06:50:14;;;;;;;61.53;23.70;;;;;;;13.09;53.60;94268.53;5085030;28;20070;-36
2022/11/01 06:52:39;;;;;;;35.45;14.57;;;;;;;14.69;49.36;94260.16;5087414;28;20028;-36
2022/11/01 06:55:05;;;;;;;23.95;14.23;;;;;;;16.23;46.03;94257.84;5088702;28;20028;-36
2022/11/01 06:57:31;;;;;;;16.60;10.15;;;;;;;17.64;42.54;94256.47;5085275;28;20024;-36
2022/11/01 06:59:57;;;;;;;19.95;11.00;;;;;;;18.91;39.54;94258.06;5088392;28;20028;-36
2022/11/01 07:02:24;;;;;;;48.17;24.05;;;;;;;20.04;37.55;94256.00;5086336;28;20102;-36
2022/11/01 07:04:50;;;;;;;56.90;19.17;;;;;;;20.95;35.53;94251.91;5087417;28;20461;-36
2022/11/01 07:07:15;;;;;;;33.28;13.80;;;;;;;21.69;34.09;94258.28;5086185;28;20051;-37
2022/11/01 07:09:41;;;;;;;20.25;11.43;;;;;;;22.38;33.04;94252.97;5088828;28;20027;-35
2022/11/01 07:12:06;;;;;;;16.65;10.40;;;;;;;22.96;31.86;94243.88;5089869;28;20017;-35
2022/11/01 07:14:32;;;;;;;12.90;9.20;;;;;;;23.57;30.95;94256.72;5092192;28;20023;-35
2022/11/01 07:16:57;;;;;;;11.30;8.93;;;;;;;24.00;30.49;94252.91;5090914;28;20035;-35
2022/11/01 07:19:22;;;;;;;11.65;7.97;;;;;;;24.30;30.36;94256.03;5091758;28;20396;-35
2022/11/01 07:21:49;;;;;;;12.02;7.10;;;;;;;24.79;29.81;94254.53;5085874;28;20028;-35
2022/11/01 07:24:14;;;;;;;12.50;8.40;;;;;;;25.24;29.73;94247.03;5090406;28;20104;-36
2022/11/01 07:26:40;;;;;;;12.25;6.43;;;;;;;25.95;28.26;94247.84;5090885;28;20030;-36
2022/11/01 07:29:05;;;;;;;11.38;6.57;;;;;;;26.54;27.86;94238.00;5091421;28;20028;-36
2022/11/01 07:31:32;;;;;;;9.85;6.53;;;;;;;26.95;27.10;94247.06;5089397;28;20024;-37
2022/11/01 07:33:58;;;;;;;9.02;6.10;;;;;;;27.37;26.81;94241.84;5088864;28;20028;-36
2022/11/01 07:36:23;;;;;;;7.53;5.68;;;;;;;27.87;26.19;94248.97;5091930;28;20565;-36
2022/11/01 07:38:49;;;;;;;7.68;5.28;;;;;;;28.00;26.26;94240.34;5087537;28;20019;-38
2022/11/01 07:41:14;;;;;;;7.25;5.32;;;;;;;28.15;25.98;94241.66;5087573;28;20016;-37
2022/11/01 07:43:40;;;;;;;7.10;4.72;;;;;;;28.01;26.00;94241.06;5090805;28;20415;-36
2022/11/01 07:46:06;;;;;;;7.07;4.82;;;;;;;28.50;25.54;94242.38;5085742;28;20404;-36
2022/11/01 07:48:32;;;;;;;9.57;3.67;;;;;;;29.08;25.33;94229.75;5084355;28;20101;-36
2022/11/01 07:50:58;;;;;;;10.13;4.90;;;;;;;29.37;24.50;94245.06;5084101;28;20031;-36
2022/11/01 07:53:23;;;;;;;11.27;4.22;;;;;;;29.36;24.61;94237.88;5084420;28;20027;-36
2022/11/01 07:55:49;;;;;;;9.50;5.40;;;;;;;29.85;24.66;94229.69;5092275;28;20108;-37
2022/11/01 07:58:15;;;;;;;7.60;5.82;;;;;;;30.19;24.00;94236.56;5093505;28;20678;-36
2022/11/01 08:00:42;;;;;;;9.30;4.57;;;;;;;30.45;23.01;94231.03;5091512;28;20016;-37
2022/11/01 08:03:10;;;;;;;6.80;4.30;;;;;;;29.65;24.15;94231.84;5090427;28;20059;-37
2022/11/01 08:05:36;;;;;;;11.07;4.35;;;;;;;30.34;24.13;94232.09;5091730;28;20637;-36
2022/11/01 08:08:02;;;;;;;7.90;4.15;;;;;;;30.79;23.36;94226.41;5089059;28;20063;-36
2022/11/01 08:10:27;;;;;;;5.38;3.35;;;;;;;30.70;23.77;94216.16;5087503;28;20063;-36
2022/11/01 08:13:04;;;;;;;37.95;5.40;;;;;;;30.99;22.95;94227.03;5085444;28;20031;-36
2022/11/01 08:15:30;;;;;;;5.82;3.00;;;;;;;31.51;22.14;94227.16;5089375;28;20051;-36
2022/11/01 08:17:56;;;;;;;6.05;3.40;;;;;;;31.47;22.70;94219.19;5085970;28;20476;-36
2022/11/01 08:20:22;;;;;;;5.13;3.05;;;;;;;31.71;22.21;94227.69;5085159;28;20037;-37
2022/11/01 08:22:48;;;;;;;26.23;3.72;;;;;;;31.63;22.55;94224.63;5082933;28;20024;-36
2022/11/01 08:25:13;;;;;;;11.75;3.35;;;;;;;32.25;21.14;94220.56;5089221;28;20038;-36
2022/11/01 08:27:39;;;;;;;4.72;3.08;;;;;;;32.42;20.55;94218.84;5085188;28;20082;-36
2022/11/01 08:30:05;;;;;;;6.03;3.35;;;;;;;32.17;21.12;94221.13;5079037;28;20081;-36
2022/11/01 08:32:31;;;;;;;10.05;3.03;;;;;;;32.34;21.49;94219.38;5080755;28;20110;-36
2022/11/01 08:34:56;;;;;;;6.47;4.82;;;;;;;32.44;21.40;94216.78;5078946;28;20451;-36
2022/11/01 08:37:22;;;;;;;3.78;2.95;;;;;;;32.40;21.10;94218.81;5082025;28;20106;-36
2022/11/01 08:39:48;;;;;;;9.55;3.67;;;;;;;32.40;21.21;94218.81;5082949;28;20063;-36
2022/11/01 08:42:13;;;;;;;10.38;3.78;;;;;;;32.79;20.85;94213.34;5086576;28;20031;-36
2022/11/01 08:44:38;;;;;;;5.80;3.75;;;;;;;32.98;20.02;94205.16;5083468;28;20028;-33
2022/11/01 08:47:04;;;;;;;4.53;3.60;;;;;;;32.87;20.19;94209.94;5086214;28;20047;-33
2022/11/01 08:49:30;;;;;;;8.00;3.47;;;;;;;32.87;21.01;94210.69;5086444;28;20479;-33
2022/11/01 08:51:55;;;;;;;5.40;2.95;;;;;;;32.93;20.31;94207.22;5086308;28;20036;-34
2022/11/01 08:54:21;;;;;;;8.25;3.42;;;;;;;32.86;20.25;94209.22;5083369;28;20024;-33
2022/11/01 08:56:47;;;;;;;5.72;3.60;;;;;;;33.13;20.01;94212.69;5073301;28;20023;-33
2022/11/01 08:59:12;;;;;;;21.25;4.07;;;;;;;33.16;19.80;94208.47;5087778;28;20089;-34
2022/11/01 09:01:37;;;;;;;6.07;3.80;;;;;;;33.43;19.48;94201.84;5077645;28;20036;-33
2022/11/01 09:04:04;;;;;;;6.57;2.92;;;;;;;33.51;19.16;94202.03;5080912;28;20032;-34
2022/11/01 09:06:30;;;;;;;11.35;3.35;;;;;;;33.40;19.51;94201.09;5085195;28;20135;-33
2022/11/01 09:08:55;;;;;;;14.70;5.00;;;;;;;33.13;20.31;94206.97;5086442;28;20099;-34
2022/11/01 09:11:23;;;;;;;4.53;3.20;;;;;;;33.23;19.81;94193.59;5088216;28;20123;-33
2022/11/01 09:13:49;;;;;;;5.10;3.83;;;;;;;33.44;19.61;94198.31;5088750;28;20507;-33
2022/11/01 09:16:15;;;;;;;7.38;4.80;;;;;;;33.18;19.85;94203.47;5086833;28;20042;-33
2022/11/01 09:18:41;;;;;;;5.32;3.60;;;;;;;32.58;20.32;94179.22;5083159;28;20381;-33
2022/11/01 09:21:07;;;;;;;6.30;3.58;;;;;;;32.10;20.81;94201.63;5087260;28;20085;-33
2022/11/01 09:23:34;;;;;;;5.95;3.85;;;;;;;32.82;20.56;94197.69;5081005;28;20037;-33
2022/11/01 09:26:08;;;;;;;5.47;3.58;;;;;;;33.43;20.13;94199.00;5066765;28;20878;-33
2022/11/01 09:28:34;;;;;;;8.93;3.53;;;;;;;33.57;19.92;94184.97;5088762;28;20032;-33
2022/11/01 09:31:04;;;;;;;11.77;3.72;;;;;;;33.94;19.55;94192.13;5084531;28;20455;-33
2022/11/01 09:33:30;;;;;;;7.18;2.97;;;;;;;33.66;19.59;94192.31;5085472;28;20439;-33
2022/11/01 09:35:55;;;;;;;6.20;2.97;;;;;;;33.90;19.31;94192.78;5090064;28;20024;-33
2022/11/01 09:38:21;;;;;;;7.35;3.25;;;;;;;34.09;18.71;94188.13;5085074;28;20032;-34
2022/11/01 09:40:54;;;;;;;7.30;2.97;;;;;;;33.94;19.22;94183.53;5088377;28;20032;-33
2022/11/01 09:43:22;;;;;;;5.32;3.53;;;;;;;33.54;19.59;94180.63;5085520;28;20024;-33
2022/11/01 09:45:48;;;;;;;7.20;3.43;;;;;;;33.26;20.17;94183.63;5069109;28;20603;-33
2022/11/01 09:48:14;;;;;;;5.07;2.90;;;;;;;33.50;19.06;94177.66;5064536;28;20036;-33
2022/11/01 09:50:42;;;;;;;16.23;10.30;;;;;;;32.92;19.93;94182.16;5082886;28;20038;-33
2022/11/01 09:53:19;;;;;;;6.90;3.75;;;;;;;32.96;20.20;94174.38;5063217;28;20061;-33
2022/11/01 09:55:53;;;;;;;6.65;3.70;;;;;;;33.22;19.84;94168.50;5085333;28;20040;-33
2022/11/01 09:58:43;;;;;;;7.00;2.88;;;;;;;32.90;19.66;94169.25;5088257;28;20118;-33
2022/11/01 10:01:39;;;;;;;8.27;5.13;;;;;;;32.91;20.38;94158.53;5083253;28;20043;-33
2022/11/01 10:04:18;;;;;;;7.75;4.97;;;;;;;32.97;20.20;94166.50;5086633;28;20032;-33
2022/11/01 10:07:07;;;;;;;11.55;3.90;;;;;;;33.35;19.97;94156.59;5084601;28;20474;-33
2022/11/01 10:09:53;;;;;;;5.72;2.97;;;;;;;33.49;19.25;94159.03;5075460;28;20032;-33
2022/11/01 10:12:37;;;;;;;5.28;2.88;;;;;;;33.16;19.64;94151.94;5065400;28;20533;-33
2022/11/01 10:15:18;;;;;;;7.80;3.10;;;;;;;33.28;19.54;94157.91;5083803;28;20050;-34
2022/11/01 10:17:50;;;;;;;6.03;3.13;;;;;;;33.35;19.46;94153.03;5069963;28;20043;-33
2022/11/01 10:20:17;;;;;;;10.23;6.20;;;;;;;33.06;19.78;94151.72;5089754;28;20049;-33
2022/11/01 10:22:47;;;;;;;3.42;2.78;;;;;;;33.06;19.91;94148.13;5070414;28;20030;-33
2022/11/01 10:25:13;;;;;;;4.85;2.35;;;;;;;32.78;19.93;94145.38;5084912;28;20107;-33
2022/11/01 10:28:12;;;;;;;6.90;2.72;;;;;;;32.81;19.94;94144.03;5087559;28;20123;-33
2022/11/01 10:30:41;;;;;;;3.15;2.15;;;;;;;32.82;20.26;94129.03;5087047;28;20032;-33
2022/11/01 10:33:25;;;;;;;11.68;6.97;;;;;;;32.42;20.35;94139.53;5073237;28;20073;-33
2022/11/01 10:35:57;;;;;;;8.77;4.53;;;;;;;32.78;20.04;94145.38;5087115;28;20028;-33
2022/11/01 10:38:41;;;;;;;14.95;3.88;;;;;;;32.87;19.74;94141.28;5069423;28;20028;-33
2022/11/01 10:41:12;;;;;;;11.07;3.65;;;;;;;32.34;20.42;94139.34;5069827;28;20024;-35
2022/11/01 10:43:52;;;;;;;15.32;7.50;;;;;;;32.44;20.16;94125.31;5089001;28;20028;-36
2022/11/01 10:46:28;;;;;;;7.45;3.67;;;;;;;32.62;19.88;94130.72;5090179;28;20555;-35
2022/11/01 10:48:57;;;;;;;20.17;5.75;;;;;;;32.62;20.11;94131.44;5085609;28;20067;-35
2022/11/01 10:51:24;;;;;;;13.95;5.85;;;;;;;32.42;19.66;94122.38;5086078;28;20024;-35
2022/11/01 10:53:53;;;;;;;11.15;3.70;;;;;;;32.52;20.13;94119.06;5089560;28;20031;-36
2022/11/01 10:56:40;;;;;;;6.07;2.70;;;;;;;32.48;20.16;94116.84;5072617;28;20097;-35
2022/11/01 10:59:14;;;;;;;7.25;3.75;;;;;;;32.69;19.81;94113.00;5090839;28;20031;-35
2022/11/01 11:01:41;;;;;;;5.75;2.63;;;;;;;32.45;19.61;94108.84;5091507;28;20043;-36
2022/11/01 11:04:11;;;;;;;20.73;7.35;;;;;;;32.48;20.20;94093.97;5091254;28;20085;-35
2022/11/01 11:06:38;;;;;;;11.82;3.95;;;;;;;32.70;20.02;94108.03;5092439;28;20511;-35
2022/11/01 11:09:04;;;;;;;11.55;3.72;;;;;;;32.64;20.30;94102.88;5091992;28;20070;-36
2022/11/01 11:11:36;;;;;;;14.50;3.97;;;;;;;32.48;19.84;94102.56;5090176;28;20772;-35
2022/11/01 11:14:05;;;;;;;11.25;3.80;;;;;;;32.41;20.37;94092.34;5074476;28;20411;-35
2022/11/01 11:17:00;;;;;;;7.47;3.08;;;;;;;32.47;20.30;94094.59;5075704;28;20024;-36
2022/11/01 11:19:28;;;;;;;8.05;3.75;;;;;;;32.34;21.01;94092.88;5061060;28;20050;-35
2022/11/01 11:21:54;;;;;;;5.72;3.67;;;;;;;32.52;20.49;94096.19;5073463;28;20032;-36
2022/11/01 11:24:22;;;;;;;10.40;3.83;;;;;;;32.30;20.54;94096.38;5087576;28;20039;-36
2022/11/01 11:26:53;;;;;;;6.38;3.45;;;;;;;31.93;20.55;94091.19;5078681;28;20020;-35
2022/11/01 11:29:36;;;;;;;5.22;3.47;;;;;;;31.95;20.76;94092.00;5089417;28;20689;-36
2022/11/01 11:32:04;;;;;;;5.03;3.17;;;;;;;31.98;20.78;94076.38;5082894;28;20564;-35
2022/11/01 11:34:32;;;;;;;11.65;3.83;;;;;;;32.00;20.93;94093.56;5077921;28;20028;-35
2022/11/01 11:36:58;;;;;;;;;;;;;;;31.73;21.33;94093.56;5071497;28;20095;-40
2022/11/01 11:39:36;;;;;;;10.77;4.00;;;;;;;31.79;21.38;94091.59;5072137;28;20002;-39
2022/11/01 11:42:15;;;;;;;;;;;;;;;31.62;21.05;94084.00;5070693;28;20802;-39
2022/11/01 11:44:41;;;;;;;;;;;;;;;31.80;21.50;94086.56;5066778;28;20011;-37
2022/11/01 11:47:23;;;;;;;14.63;3.78;;;;;;;31.64;21.24;94080.47;5088027;28;19922;-37
2022/11/01 11:49:52;;;;;;;8.68;3.45;;;;;;;31.55;21.21;94081.66;5090689;28;20031;-37
2022/11/01 11:52:20;;;;;;;5.45;3.22;;;;;;;31.19;21.48;94082.13;5090522;28;20020;-39